createdAt,value
2022-12-26T00:01:02.847Z,62.36
2022-12-26T00:03:31.037Z,62.42
2022-12-26T00:05:58.095Z,62.66
2022-12-26T00:08:25.182Z,63.11
2022-12-26T00:10:52.321Z,63.20
2022-12-26T00:13:39.384Z,63.12
2022-12-26T00:16:19.765Z,63.50
2022-12-26T00:18:47.317Z,63.66
2022-12-26T00:21:15.943Z,64.02
2022-12-26T00:23:43.802Z,63.81
2022-12-26T00:26:17.542Z,63.15
2022-12-26T00:28:45.116Z,62.60
2022-12-26T00:31:15.855Z,63.59
2022-12-26T00:33:43.084Z,63.67
2022-12-26T00:36:22.358Z,62.73
2022-12-26T00:38:50.415Z,63.26
2022-12-26T00:41:18.624Z,63.76
2022-12-26T00:43:46.235Z,64.20
2022-12-26T00:46:13.644Z,64.03
2022-12-26T00:48:42.244Z,64.53
2022-12-26T00:51:09.425Z,64.66
2022-12-26T00:53:36.826Z,64.24
2022-12-26T00:56:04.636Z,64.26
2022-12-26T00:58:31.690Z,63.93
2022-12-26T01:01:17.488Z,63.63
2022-12-26T01:03:46.716Z,63.97
2022-12-26T01:06:14.452Z,63.86
2022-12-26T01:08:41.844Z,64.02
2022-12-26T01:11:11.428Z,63.39
2022-12-26T01:13:38.838Z,63.13
2022-12-26T01:16:06.858Z,64.55
2022-12-26T01:18:35.153Z,64.40
2022-12-26T01:21:06.944Z,64.17
2022-12-26T01:23:34.136Z,63.94
2022-12-26T01:26:18.985Z,65.11
2022-12-26T01:28:52.451Z,65.49
2022-12-26T01:31:21.000Z,64.25
2022-12-26T01:33:48.284Z,64.47
2022-12-26T01:36:16.808Z,63.80
2022-12-26T01:38:44.541Z,63.56
2022-12-26T01:41:20.354Z,63.90
2022-12-26T01:44:01.583Z,64.40
2022-12-26T01:46:39.709Z,64.57
2022-12-26T01:49:35.987Z,64.18
2022-12-26T01:52:09.994Z,64.17
2022-12-26T01:54:42.642Z,64.20
2022-12-26T01:57:24.032Z,64.57
2022-12-26T01:59:52.393Z,63.95
2022-12-26T02:02:20.549Z,63.64
2022-12-26T02:05:10.236Z,63.73
2022-12-26T02:07:42.192Z,63.26
2022-12-26T02:10:14.664Z,63.41
2022-12-26T02:12:41.824Z,63.19
2022-12-26T02:15:12.908Z,63.33
2022-12-26T02:17:42.930Z,62.84
2022-12-26T02:20:23.063Z,62.34
2022-12-26T02:23:12.072Z,62.27
2022-12-26T02:26:00.081Z,62.81
2022-12-26T02:28:26.984Z,62.34
2022-12-26T02:31:00.191Z,63.35
2022-12-26T02:33:59.163Z,63.61
2022-12-26T02:36:40.292Z,63.25
2022-12-26T02:39:46.637Z,64.45
2022-12-26T02:42:35.540Z,63.61
2022-12-26T02:45:28.243Z,64.78
2022-12-26T02:48:20.287Z,64.80
2022-12-26T02:51:55.965Z,65.03
2022-12-26T02:54:59.289Z,64.79
2022-12-26T02:57:56.505Z,64.29
2022-12-26T03:00:42.105Z,64.54
2022-12-26T03:03:33.852Z,64.59
2022-12-26T03:06:23.960Z,64.66
2022-12-26T03:09:15.531Z,64.54
2022-12-26T03:12:04.295Z,64.13
2022-12-26T03:14:38.706Z,64.14
2022-12-26T03:17:21.475Z,64.10
2022-12-26T03:20:01.775Z,63.60
2022-12-26T03:22:44.202Z,63.82
2022-12-26T03:25:44.168Z,63.74
2022-12-26T03:28:13.912Z,64.17
2022-12-26T03:30:50.659Z,64.21
2022-12-26T03:33:39.028Z,64.17
2022-12-26T03:36:07.965Z,64.18
2022-12-26T03:38:58.707Z,64.84
2022-12-26T03:41:53.855Z,64.36
2022-12-26T03:44:56.605Z,64.34
2022-12-26T03:48:08.406Z,63.93
2022-12-26T03:51:07.367Z,63.41
2022-12-26T03:54:09.167Z,63.19
2022-12-26T03:57:11.526Z,63.53
2022-12-26T04:00:07.974Z,63.39
2022-12-26T04:03:00.931Z,63.45
2022-12-26T04:05:46.967Z,63.74
2022-12-26T04:08:48.658Z,63.25
2022-12-26T04:11:36.056Z,63.41
2022-12-26T04:15:01.705Z,63.53
2022-12-26T04:18:13.086Z,63.97
2022-12-26T04:21:37.265Z,63.50
2022-12-26T04:24:32.824Z,63.42
2022-12-26T04:27:22.447Z,63.30
2022-12-26T04:30:08.682Z,63.28
2022-12-26T04:33:02.281Z,63.19
2022-12-26T04:36:01.663Z,63.10
2022-12-26T04:38:52.416Z,63.28
2022-12-26T04:41:39.545Z,62.75
2022-12-26T04:44:11.466Z,63.18
2022-12-26T04:46:41.595Z,63.36
2022-12-26T04:49:29.932Z,63.46
2022-12-26T04:51:59.049Z,63.57
2022-12-26T04:54:26.784Z,63.48
2022-12-26T04:56:54.171Z,63.63
2022-12-26T04:59:22.905Z,63.46
2022-12-26T05:02:08.554Z,63.64
2022-12-26T05:04:54.504Z,63.51
2022-12-26T05:07:48.748Z,63.55
2022-12-26T05:10:20.826Z,63.56
2022-12-26T05:12:48.208Z,63.57
2022-12-26T05:15:15.903Z,63.45
2022-12-26T05:18:01.604Z,63.16
2022-12-26T05:20:46.636Z,63.19
2022-12-26T05:23:47.013Z,63.21
2022-12-26T05:26:42.204Z,63.13
2022-12-26T05:29:09.647Z,63.15
2022-12-26T05:31:37.348Z,63.01
2022-12-26T05:34:06.084Z,63.02
2022-12-26T05:36:39.306Z,62.95
2022-12-26T05:39:07.619Z,62.58
2022-12-26T05:41:34.769Z,62.60
2022-12-26T05:44:02.168Z,62.49
2022-12-26T05:46:29.456Z,62.47
2022-12-26T05:48:56.645Z,62.61
2022-12-26T05:51:23.927Z,62.18
2022-12-26T05:53:52.242Z,62.22
2022-12-26T05:56:20.349Z,62.28
2022-12-26T05:58:47.804Z,62.35
2022-12-26T06:01:20.410Z,62.07
2022-12-26T06:03:53.483Z,62.48
2022-12-26T06:06:22.086Z,61.97
2022-12-26T06:08:54.264Z,61.42
2022-12-26T06:11:22.175Z,61.63
2022-12-26T06:13:49.338Z,61.23
2022-12-26T06:16:19.011Z,61.73
2022-12-26T06:18:46.567Z,61.74
2022-12-26T06:21:17.331Z,62.02
2022-12-26T06:23:44.770Z,61.76
2022-12-26T06:26:13.165Z,62.19
2022-12-26T06:28:42.213Z,61.93
2022-12-26T06:31:13.179Z,61.74
2022-12-26T06:33:40.926Z,62.17
2022-12-26T06:36:11.527Z,61.88
2022-12-26T06:38:39.524Z,62.11
2022-12-26T06:41:08.765Z,61.95
2022-12-26T06:43:36.701Z,61.81
2022-12-26T06:46:06.816Z,61.76
2022-12-26T06:48:39.830Z,61.91
2022-12-26T06:51:14.605Z,61.45
2022-12-26T06:53:42.804Z,61.15
2022-12-26T06:56:19.278Z,61.59
2022-12-26T06:58:46.933Z,61.75
2022-12-26T07:01:19.382Z,61.96
2022-12-26T07:03:51.637Z,62.08
2022-12-26T07:06:31.736Z,62.41
2022-12-26T07:09:05.458Z,62.17
2022-12-26T07:11:36.008Z,62.08
2022-12-26T07:14:04.737Z,62.24
2022-12-26T07:16:35.197Z,62.19
2022-12-26T07:19:02.575Z,62.33
2022-12-26T07:21:33.462Z,62.30
2022-12-26T07:24:04.008Z,62.14
2022-12-26T07:26:31.288Z,62.18
2022-12-26T07:28:59.772Z,61.96
2022-12-26T07:31:29.957Z,62.13
2022-12-26T07:33:57.603Z,62.59
2022-12-26T07:36:28.445Z,62.75
2022-12-26T07:38:56.055Z,62.20
2022-12-26T07:41:41.931Z,62.64
2022-12-26T07:44:12.342Z,62.76
2022-12-26T07:46:39.623Z,62.10
2022-12-26T07:49:07.538Z,61.84
2022-12-26T07:51:34.815Z,62.28
2022-12-26T07:54:08.895Z,62.21
2022-12-26T07:56:38.205Z,62.11
2022-12-26T07:59:05.372Z,61.79
2022-12-26T08:01:33.269Z,61.71
2022-12-26T08:04:00.744Z,61.70
2022-12-26T08:06:28.250Z,61.28
2022-12-26T08:08:55.445Z,60.83
2022-12-26T08:11:24.705Z,60.78
2022-12-26T08:13:53.012Z,60.77
2022-12-26T08:16:20.479Z,59.92
2022-12-26T08:18:48.087Z,59.94
2022-12-26T08:21:15.674Z,60.69
2022-12-26T08:23:43.213Z,60.73
2022-12-26T08:26:12.537Z,61.19
2022-12-26T08:28:42.405Z,60.80
2022-12-26T08:31:11.051Z,60.88
2022-12-26T08:33:38.406Z,61.22
2022-12-26T08:36:08.165Z,61.06
2022-12-26T08:38:36.138Z,60.83
2022-12-26T08:41:03.616Z,60.88
2022-12-26T08:44:24.843Z,60.67
2022-12-26T08:46:20.380Z,60.70
2022-12-26T08:48:48.577Z,60.96
2022-12-26T08:51:23.106Z,60.84
2022-12-26T08:53:52.007Z,59.97
2022-12-26T08:56:27.647Z,60.93
2022-12-26T08:58:55.644Z,60.43
2022-12-26T09:01:25.920Z,60.56
2022-12-26T09:03:55.492Z,61.05
2022-12-26T09:06:23.445Z,61.19
2022-12-26T09:08:51.244Z,61.32
2022-12-26T09:11:27.128Z,61.28
2022-12-26T09:13:55.413Z,61.10
2022-12-26T09:16:27.437Z,61.39
2022-12-26T09:18:59.485Z,60.94
2022-12-26T09:21:27.809Z,60.42
2022-12-26T09:23:59.769Z,60.79
2022-12-26T09:26:29.196Z,60.48
2022-12-26T09:28:57.175Z,60.40
2022-12-26T09:31:28.884Z,60.04
2022-12-26T09:33:56.769Z,59.25
2022-12-26T09:36:30.923Z,58.54
2022-12-26T09:38:59.644Z,58.70
2022-12-26T09:41:44.725Z,57.99
2022-12-26T09:44:48.769Z,56.62
2022-12-26T09:47:35.848Z,56.55
2022-12-26T09:50:14.284Z,56.96
2022-12-26T09:52:53.403Z,56.64
2022-12-26T09:55:47.436Z,57.02
2022-12-26T09:58:27.062Z,56.75
2022-12-26T10:00:59.285Z,56.86
2022-12-26T10:03:27.654Z,57.04
2022-12-26T10:06:10.163Z,57.39
2022-12-26T10:08:47.286Z,57.28
2022-12-26T10:11:45.364Z,57.11
2022-12-26T10:14:24.605Z,58.00
2022-12-26T10:17:22.810Z,56.79
2022-12-26T10:20:05.368Z,56.10
2022-12-26T10:22:49.467Z,54.37
2022-12-26T10:25:28.838Z,53.05
2022-12-26T10:28:00.775Z,52.53
2022-12-26T10:30:36.205Z,52.14
2022-12-26T10:33:13.244Z,51.58
2022-12-26T10:35:44.009Z,50.09
2022-12-26T10:38:15.445Z,49.13
2022-12-26T10:40:47.056Z,48.58
2022-12-26T10:43:32.374Z,48.46
2022-12-26T10:46:37.512Z,47.59
2022-12-26T10:49:05.029Z,47.31
2022-12-26T10:51:32.371Z,48.01
2022-12-26T10:53:59.844Z,47.69
2022-12-26T10:56:28.102Z,47.45
2022-12-26T10:59:05.061Z,46.52
2022-12-26T11:01:38.276Z,46.37
2022-12-26T11:04:37.433Z,44.21
2022-12-26T11:07:11.523Z,44.57
2022-12-26T11:09:45.911Z,44.28
2022-12-26T11:12:25.489Z,43.46
2022-12-26T11:14:59.725Z,43.70
2022-12-26T11:17:33.930Z,43.24
2022-12-26T11:20:16.719Z,43.40
2022-12-26T11:22:45.246Z,43.07
2022-12-26T11:25:20.014Z,42.58
2022-12-26T11:27:53.409Z,42.84
2022-12-26T11:30:31.962Z,42.34
2022-12-26T11:33:13.719Z,42.40
2022-12-26T11:36:28.208Z,42.51
2022-12-26T11:39:03.695Z,42.23
2022-12-26T11:41:34.046Z,41.36
2022-12-26T11:44:41.412Z,41.53
2022-12-26T11:47:08.684Z,41.32
2022-12-26T11:49:41.047Z,41.30
2022-12-26T11:52:38.470Z,41.28
2022-12-26T11:55:24.329Z,41.18
2022-12-26T11:58:07.018Z,41.10
2022-12-26T12:00:42.973Z,41.00
2022-12-26T12:13:36.205Z,42.29
2022-12-26T12:16:21.342Z,41.75
2022-12-26T12:19:02.885Z,42.58
2022-12-26T12:21:46.487Z,41.86
2022-12-26T12:24:43.933Z,41.87
2022-12-26T12:27:24.616Z,42.03
2022-12-26T12:30:20.018Z,40.79
2022-12-26T12:33:11.945Z,40.67
2022-12-26T12:35:45.406Z,39.19
2022-12-26T12:38:32.965Z,39.01
2022-12-26T12:41:25.867Z,38.46
2022-12-26T12:44:16.807Z,37.64
2022-12-26T12:47:06.525Z,36.66
2022-12-26T12:50:11.841Z,34.75
2022-12-26T12:52:46.604Z,34.69
2022-12-26T12:55:22.926Z,33.57
2022-12-26T12:58:01.554Z,32.28
2022-12-26T13:00:38.825Z,32.43
2022-12-26T13:03:18.756Z,32.64
2022-12-26T13:06:16.565Z,32.52
2022-12-26T13:08:51.583Z,33.02
2022-12-26T13:11:35.204Z,32.58
2022-12-26T13:14:12.495Z,33.12
2022-12-26T13:16:43.909Z,33.16
2022-12-26T13:19:25.898Z,33.90
2022-12-26T13:21:57.890Z,33.96
2022-12-26T13:24:37.329Z,34.49
2022-12-26T13:27:04.486Z,35.23
2022-12-26T13:29:31.529Z,35.64
2022-12-26T13:31:59.898Z,36.25
2022-12-26T13:34:28.168Z,36.03
2022-12-26T13:36:57.487Z,36.97
2022-12-26T13:39:27.469Z,37.09
2022-12-26T13:42:21.285Z,37.21
2022-12-26T13:44:53.611Z,38.97
2022-12-26T13:47:39.847Z,39.76
2022-12-26T13:50:49.941Z,40.34
2022-12-26T13:53:24.963Z,41.24
2022-12-26T13:56:03.645Z,41.81
2022-12-26T13:58:42.732Z,42.46
2022-12-26T14:01:36.196Z,42.45
2022-12-26T14:04:21.962Z,42.73
2022-12-26T14:07:04.494Z,42.75
2022-12-26T14:09:53.084Z,42.70
2022-12-26T14:12:34.004Z,43.45
2022-12-26T14:15:25.049Z,44.18
2022-12-26T14:18:07.286Z,44.75
2022-12-26T14:20:45.404Z,44.70
2022-12-26T14:23:32.883Z,44.74
2022-12-26T14:26:29.364Z,45.50
2022-12-26T14:29:30.605Z,45.86
2022-12-26T14:32:16.245Z,45.95
2022-12-26T14:35:10.562Z,46.42
2022-12-26T14:37:48.327Z,46.41
2022-12-26T14:40:26.774Z,47.27
2022-12-26T14:43:12.534Z,47.58
2022-12-26T14:45:42.945Z,48.03
2022-12-26T14:48:15.968Z,48.21
2022-12-26T14:51:09.227Z,48.56
2022-12-26T14:53:36.584Z,49.32
2022-12-26T14:56:33.334Z,49.29
2022-12-26T14:59:22.375Z,49.77
2022-12-26T15:02:20.694Z,49.93
2022-12-26T15:05:08.812Z,50.42
2022-12-26T15:07:56.092Z,50.34
2022-12-26T15:10:29.253Z,50.67
2022-12-26T15:13:11.485Z,51.20
2022-12-26T15:16:15.981Z,51.38
2022-12-26T15:19:09.245Z,51.60
2022-12-26T15:21:54.765Z,51.95
2022-12-26T15:25:18.255Z,52.29
2022-12-26T15:28:15.828Z,52.11
2022-12-26T15:30:52.374Z,52.89
2022-12-26T15:33:29.567Z,53.16
2022-12-26T15:36:19.928Z,53.26
2022-12-26T15:38:58.487Z,53.27
2022-12-26T15:41:43.847Z,53.40
2022-12-26T15:44:13.725Z,53.62
2022-12-26T15:46:55.766Z,54.12
2022-12-26T15:49:38.164Z,54.14
2022-12-26T15:52:30.486Z,54.12
2022-12-26T15:54:57.605Z,54.56
2022-12-26T15:57:59.972Z,54.54
2022-12-26T16:00:33.493Z,54.42
2022-12-26T16:03:18.763Z,54.75
2022-12-26T16:05:51.737Z,54.84
2022-12-26T16:08:43.698Z,55.29
2022-12-26T16:11:10.856Z,55.57
2022-12-26T16:13:53.571Z,55.63
2022-12-26T16:16:30.689Z,55.95
2022-12-26T16:18:58.403Z,56.39
2022-12-26T16:21:47.746Z,56.24
2022-12-26T16:24:22.411Z,56.12
2022-12-26T16:26:49.769Z,56.22
2022-12-26T16:29:21.013Z,56.00
2022-12-26T16:31:48.443Z,56.02
2022-12-26T16:34:21.207Z,57.55
2022-12-26T16:36:51.373Z,57.56
2022-12-26T16:39:23.613Z,57.35
2022-12-26T16:42:16.511Z,57.28
2022-12-26T16:44:44.686Z,57.62
2022-12-26T16:47:14.681Z,57.75
2022-12-26T16:49:43.762Z,58.08
2022-12-26T16:52:43.892Z,57.63
2022-12-26T16:55:31.613Z,57.91
2022-12-26T16:58:02.133Z,57.34
2022-12-26T17:00:29.444Z,57.17
2022-12-26T17:03:00.208Z,57.02
2022-12-26T17:05:32.216Z,57.50
2022-12-26T17:08:02.449Z,57.53
2022-12-26T17:10:36.360Z,58.17
2022-12-26T17:13:09.405Z,57.84
2022-12-26T17:15:46.551Z,57.87
2022-12-26T17:18:40.293Z,58.48
2022-12-26T17:21:25.660Z,58.34
2022-12-26T17:24:08.329Z,57.97
2022-12-26T17:26:40.575Z,58.01
2022-12-26T17:29:37.003Z,58.24
2022-12-26T17:32:14.735Z,58.03
2022-12-26T17:34:42.614Z,58.18
2022-12-26T17:37:19.893Z,58.62
2022-12-26T17:40:02.463Z,58.22
2022-12-26T17:42:31.689Z,57.92
2022-12-26T17:44:59.209Z,58.32
2022-12-26T17:47:29.124Z,58.10
2022-12-26T17:49:57.410Z,58.58
2022-12-26T17:52:26.092Z,58.08
2022-12-26T17:54:54.090Z,57.98
2022-12-26T17:57:25.412Z,58.36
2022-12-26T17:59:54.003Z,58.35
2022-12-26T18:02:22.281Z,58.35
2022-12-26T18:04:50.648Z,58.45
2022-12-26T18:07:27.225Z,58.34
2022-12-26T18:09:58.285Z,59.21
2022-12-26T18:12:25.564Z,59.41
2022-12-26T18:14:59.339Z,59.54
2022-12-26T18:17:32.088Z,59.45
2022-12-26T18:19:59.774Z,59.52
2022-12-26T18:22:26.929Z,59.25
2022-12-26T18:24:54.342Z,58.70
2022-12-26T18:27:28.973Z,58.84
2022-12-26T18:29:56.324Z,58.81
2022-12-26T18:32:29.324Z,58.73
2022-12-26T18:34:57.457Z,58.92
2022-12-26T18:37:28.045Z,59.18
2022-12-26T18:39:55.405Z,58.76
2022-12-26T18:42:22.606Z,58.20
2022-12-26T18:44:49.773Z,58.23
2022-12-26T18:47:19.368Z,58.22
2022-12-26T18:49:47.856Z,57.91
2022-12-26T18:52:17.703Z,58.11
2022-12-26T18:54:45.388Z,57.89
2022-12-26T18:57:20.945Z,56.85
2022-12-26T18:59:48.616Z,56.29
2022-12-26T19:02:18.569Z,56.77
2022-12-26T19:04:48.883Z,56.88
2022-12-26T19:07:18.047Z,57.11
2022-12-26T19:09:47.171Z,56.94
2022-12-26T19:12:15.172Z,57.12
2022-12-26T19:14:44.626Z,57.03
2022-12-26T19:17:11.804Z,57.27
2022-12-26T19:19:39.164Z,57.18
2022-12-26T19:22:06.367Z,56.86
2022-12-26T19:24:34.376Z,56.78
2022-12-26T19:27:02.606Z,57.13
2022-12-26T19:29:29.768Z,57.03
2022-12-26T19:31:57.430Z,56.87
2022-12-26T19:34:24.768Z,56.75
2022-12-26T19:36:51.966Z,57.02
2022-12-26T19:39:19.283Z,56.97
2022-12-26T19:41:46.647Z,56.61
2022-12-26T19:44:14.088Z,56.61
2022-12-26T19:46:41.383Z,56.74
2022-12-26T19:49:08.686Z,56.83
2022-12-26T19:51:35.808Z,56.86
2022-12-26T19:54:03.165Z,56.76
2022-12-26T19:56:30.500Z,56.79
2022-12-26T19:58:57.654Z,56.56
2022-12-26T20:01:28.267Z,56.61
2022-12-26T20:04:01.967Z,56.74
2022-12-26T20:06:31.404Z,56.46
2022-12-26T20:09:01.243Z,55.75
2022-12-26T20:11:31.170Z,55.42
2022-12-26T20:14:00.465Z,55.86
2022-12-26T20:19:15.792Z,56.14
2022-12-26T20:21:42.977Z,56.08
2022-12-26T20:24:11.529Z,56.62
2022-12-26T20:26:39.287Z,56.72
2022-12-26T20:29:06.892Z,57.25
2022-12-26T20:31:34.125Z,57.13
2022-12-26T20:34:02.141Z,57.49
2022-12-26T20:36:31.649Z,57.46
2022-12-26T20:39:01.007Z,57.67
2022-12-26T20:41:29.856Z,57.91
2022-12-26T20:43:57.526Z,57.95
2022-12-26T20:46:28.389Z,58.25
2022-12-26T20:48:56.058Z,57.49
2022-12-26T20:51:29.024Z,57.63
2022-12-26T20:54:00.807Z,58.30
2022-12-26T20:56:29.129Z,58.27
2022-12-26T20:58:59.691Z,58.45
2022-12-26T21:01:28.315Z,57.99
2022-12-26T21:03:57.519Z,57.77
2022-12-26T21:06:30.209Z,56.94
2022-12-26T21:08:58.326Z,56.57
2022-12-26T21:11:30.966Z,56.48
2022-12-26T21:14:06.700Z,56.88
2022-12-26T21:16:37.166Z,56.48
2022-12-26T21:19:09.391Z,56.34
2022-12-26T21:21:44.449Z,56.42
2022-12-26T21:24:15.203Z,56.70
2022-12-26T21:26:44.173Z,56.42
2022-12-26T21:29:17.402Z,56.64
2022-12-26T21:31:45.603Z,56.44
2022-12-26T21:34:17.694Z,56.64
2022-12-26T21:37:06.087Z,56.82
2022-12-26T21:39:34.964Z,57.07
2022-12-26T21:42:02.938Z,57.06
2022-12-26T21:44:30.331Z,56.94
2022-12-26T21:46:57.547Z,57.72
2022-12-26T21:49:25.086Z,57.59
2022-12-26T21:51:52.284Z,58.57
2022-12-26T21:54:40.021Z,58.16
2022-12-26T21:57:12.005Z,57.73
2022-12-26T21:59:57.257Z,57.78
2022-12-26T22:02:45.351Z,57.53
2022-12-26T22:05:12.645Z,57.69
2022-12-26T22:07:39.886Z,57.47
2022-12-26T22:10:07.733Z,57.32
2022-12-26T22:12:53.291Z,58.33
2022-12-26T22:15:39.113Z,58.06
2022-12-26T22:18:06.392Z,57.78
2022-12-26T22:20:35.885Z,57.22
2022-12-26T22:23:04.018Z,57.68
2022-12-26T22:25:31.247Z,57.34
2022-12-26T22:28:00.250Z,56.91
2022-12-26T22:30:27.488Z,56.83
2022-12-26T22:32:54.648Z,57.37
2022-12-26T22:35:22.001Z,57.24
2022-12-26T22:37:49.331Z,57.38
2022-12-26T22:40:16.525Z,56.59
2022-12-26T22:42:43.771Z,56.69
2022-12-26T22:45:11.167Z,56.49
2022-12-26T22:47:38.454Z,56.34
2022-12-26T22:50:05.925Z,56.40
2022-12-26T22:52:33.169Z,56.75
2022-12-26T22:55:00.250Z,56.37
2022-12-26T22:57:27.491Z,55.72
2022-12-26T23:00:08.107Z,55.75
2022-12-26T23:02:36.640Z,56.18
2022-12-26T23:05:04.826Z,56.00
2022-12-26T23:07:32.377Z,55.74
2022-12-26T23:10:00.730Z,55.81
2022-12-26T23:12:43.630Z,55.94
2022-12-26T23:15:17.486Z,56.10
2022-12-26T23:18:32.451Z,55.70
2022-12-26T23:21:26.010Z,55.22
2022-12-26T23:23:53.442Z,55.20
2022-12-26T23:26:20.563Z,55.33
2022-12-26T23:29:19.807Z,55.58
2022-12-26T23:31:47.127Z,55.08
2022-12-26T23:34:14.653Z,55.11
2022-12-26T23:36:42.045Z,54.71
2022-12-26T23:39:09.275Z,54.87
2022-12-26T23:41:36.522Z,54.64
2022-12-26T23:44:03.765Z,54.75
2022-12-26T23:46:31.018Z,54.89
2022-12-26T23:48:58.445Z,55.15
2022-12-26T23:51:25.923Z,55.05
2022-12-26T23:53:53.268Z,54.68
2022-12-26T23:56:20.489Z,54.57
2022-12-26T23:58:47.702Z,54.17
